sensor_id;sensor_type;location;lat;lon;timestamp;pressure;altitude;pressure_sealevel;temperature;humidity
75745;BME280;64359;51.366;-0.222;2023-05-02T00:00:24;101937.08;;;21.87;54.03
75745;BME280;64359;51.366;-0.222;2023-05-02T00:01:26;101940.54;;;21.86;54.05
75745;BME280;64359;51.366;-0.222;2023-05-02T00:02:28;101939.01;;;21.85;54.06
75745;BME280;64359;51.366;-0.222;2023-05-02T00:03:31;101938.39;;;21.86;54.05
75745;BME280;64359;51.366;-0.222;2023-05-02T00:04:33;101936.90;;;21.85;54.11
75745;BME280;64359;51.366;-0.222;2023-05-02T00:05:35;101939.20;;;21.85;54.06
75745;BME280;64359;51.366;-0.222;2023-05-02T00:06:38;101937.31;;;21.84;53.98
75745;BME280;64359;51.366;-0.222;2023-05-02T00:07:40;101938.60;;;21.84;54.11
75745;BME280;64359;51.366;-0.222;2023-05-02T00:08:42;101939.69;;;21.84;54.01
75745;BME280;64359;51.366;-0.222;2023-05-02T00:09:45;101939.41;;;21.83;54.11
75745;BME280;64359;51.366;-0.222;2023-05-02T00:10:47;101938.87;;;21.83;53.91
75745;BME280;64359;51.366;-0.222;2023-05-02T00:11:50;101941.45;;;21.83;53.96
75745;BME280;64359;51.366;-0.222;2023-05-02T00:12:52;101941.11;;;21.83;54.05
75745;BME280;64359;51.366;-0.222;2023-05-02T00:13:54;101942.23;;;21.83;53.97
75745;BME280;64359;51.366;-0.222;2023-05-02T00:14:56;101940.63;;;21.82;53.97
75745;BME280;64359;51.366;-0.222;2023-05-02T00:15:59;101942.13;;;21.82;54.04
75745;BME280;64359;51.366;-0.222;2023-05-02T00:17:01;101943.41;;;21.82;53.76
75745;BME280;64359;51.366;-0.222;2023-05-02T00:18:03;101942.70;;;21.82;54.06
75745;BME280;64359;51.366;-0.222;2023-05-02T00:19:06;101940.25;;;21.81;53.90
75745;BME280;64359;51.366;-0.222;2023-05-02T00:20:10;101942.02;;;21.81;53.86
75745;BME280;64359;51.366;-0.222;2023-05-02T00:21:12;101939.75;;;21.81;53.91
75745;BME280;64359;51.366;-0.222;2023-05-02T00:22:15;101938.16;;;21.80;53.80
75745;BME280;64359;51.366;-0.222;2023-05-02T00:23:17;101941.10;;;21.80;53.88
75745;BME280;64359;51.366;-0.222;2023-05-02T00:24:19;101936.60;;;21.80;53.82
75745;BME280;64359;51.366;-0.222;2023-05-02T00:25:21;101938.05;;;21.80;53.87
75745;BME280;64359;51.366;-0.222;2023-05-02T00:26:24;101932.86;;;21.79;53.89
75745;BME280;64359;51.366;-0.222;2023-05-02T00:27:27;101930.94;;;21.79;53.85
75745;BME280;64359;51.366;-0.222;2023-05-02T00:28:30;101932.96;;;21.78;53.86
75745;BME280;64359;51.366;-0.222;2023-05-02T00:29:34;101932.63;;;21.78;53.82
75745;BME280;64359;51.366;-0.222;2023-05-02T00:30:36;101931.84;;;21.78;53.92
75745;BME280;64359;51.366;-0.222;2023-05-02T00:31:43;101933.57;;;21.77;53.81
75745;BME280;64359;51.366;-0.222;2023-05-02T00:32:45;101932.54;;;21.76;53.98
75745;BME280;64359;51.366;-0.222;2023-05-02T00:33:47;101934.16;;;21.77;53.97
75745;BME280;64359;51.366;-0.222;2023-05-02T00:34:49;101933.11;;;21.76;53.92
75745;BME280;64359;51.366;-0.222;2023-05-02T00:35:52;101930.30;;;21.75;53.97
75745;BME280;64359;51.366;-0.222;2023-05-02T00:36:54;101932.66;;;21.75;53.83
75745;BME280;64359;51.366;-0.222;2023-05-02T00:37:58;101930.33;;;21.75;53.98
75745;BME280;64359;51.366;-0.222;2023-05-02T00:39:00;101929.30;;;21.75;54.03
75745;BME280;64359;51.366;-0.222;2023-05-02T00:40:03;101932.02;;;21.75;53.88
75745;BME280;64359;51.366;-0.222;2023-05-02T00:41:05;101933.67;;;21.74;53.99
75745;BME280;64359;51.366;-0.222;2023-05-02T00:42:08;101933.51;;;21.74;53.97
75745;BME280;64359;51.366;-0.222;2023-05-02T00:43:10;101935.02;;;21.74;53.81
75745;BME280;64359;51.366;-0.222;2023-05-02T00:44:12;101934.82;;;21.74;53.79
75745;BME280;64359;51.366;-0.222;2023-05-02T00:45:15;101936.86;;;21.73;53.84
75745;BME280;64359;51.366;-0.222;2023-05-02T00:46:17;101938.08;;;21.74;53.98
75745;BME280;64359;51.366;-0.222;2023-05-02T00:47:19;101937.20;;;21.74;53.97
75745;BME280;64359;51.366;-0.222;2023-05-02T00:48:22;101935.95;;;21.73;53.93
75745;BME280;64359;51.366;-0.222;2023-05-02T00:49:26;101936.95;;;21.74;54.00
75745;BME280;64359;51.366;-0.222;2023-05-02T00:50:28;101935.06;;;21.73;53.88
75745;BME280;64359;51.366;-0.222;2023-05-02T00:51:33;101937.44;;;21.73;53.79
75745;BME280;64359;51.366;-0.222;2023-05-02T00:52:34;101936.75;;;21.73;53.80
75745;BME280;64359;51.366;-0.222;2023-05-02T00:53:38;101939.77;;;21.70;53.93
75745;BME280;64359;51.366;-0.222;2023-05-02T00:54:40;101942.69;;;21.70;54.08
75745;BME280;64359;51.366;-0.222;2023-05-02T00:55:44;101943.94;;;21.70;54.02
75745;BME280;64359;51.366;-0.222;2023-05-02T00:56:46;101939.97;;;21.70;54.01
75745;BME280;64359;51.366;-0.222;2023-05-02T00:57:49;101944.99;;;21.70;53.92
75745;BME280;64359;51.366;-0.222;2023-05-02T00:58:51;101945.44;;;21.69;53.94
75745;BME280;64359;51.366;-0.222;2023-05-02T00:59:54;101947.02;;;21.70;54.00
75745;BME280;64359;51.366;-0.222;2023-05-02T01:01:07;101949.46;;;21.71;54.04
75745;BME280;64359;51.366;-0.222;2023-05-02T01:02:24;101951.84;;;21.70;53.85
75745;BME280;64359;51.366;-0.222;2023-05-02T01:03:38;101953.70;;;21.70;53.98
75745;BME280;64359;51.366;-0.222;2023-05-02T01:04:53;101951.06;;;21.69;53.93
75745;BME280;64359;51.366;-0.222;2023-05-02T01:06:10;101948.76;;;21.69;54.01
75745;BME280;64359;51.366;-0.222;2023-05-02T01:07:27;101950.98;;;21.68;53.99
75745;BME280;64359;51.366;-0.222;2023-05-02T01:08:42;101950.38;;;21.67;53.97
75745;BME280;64359;51.366;-0.222;2023-05-02T01:09:55;101951.59;;;21.68;53.97
75745;BME280;64359;51.366;-0.222;2023-05-02T01:11:04;101952.34;;;21.67;54.02
75745;BME280;64359;51.366;-0.222;2023-05-02T01:12:18;101950.98;;;21.67;53.93
75745;BME280;64359;51.366;-0.222;2023-05-02T01:13:27;101952.11;;;21.66;53.95
75745;BME280;64359;51.366;-0.222;2023-05-02T01:14:35;101949.55;;;21.67;53.90
75745;BME280;64359;51.366;-0.222;2023-05-02T01:15:43;101948.88;;;21.66;53.93
75745;BME280;64359;51.366;-0.222;2023-05-02T01:16:46;101949.26;;;21.66;53.80
75745;BME280;64359;51.366;-0.222;2023-05-02T01:17:50;101949.02;;;21.67;53.78
75745;BME280;64359;51.366;-0.222;2023-05-02T01:18:53;101948.20;;;21.66;53.77
75745;BME280;64359;51.366;-0.222;2023-05-02T01:19:58;101948.38;;;21.66;53.88
75745;BME280;64359;51.366;-0.222;2023-05-02T01:21:06;101949.15;;;21.65;53.88
75745;BME280;64359;51.366;-0.222;2023-05-02T01:22:10;101950.95;;;21.65;53.70
75745;BME280;64359;51.366;-0.222;2023-05-02T01:23:22;101951.53;;;21.65;53.82
75745;BME280;64359;51.366;-0.222;2023-05-02T01:24:31;101951.39;;;21.65;53.80
75745;BME280;64359;51.366;-0.222;2023-05-02T01:25:58;101952.91;;;21.64;53.76
75745;BME280;64359;51.366;-0.222;2023-05-02T01:27:13;101957.05;;;21.63;53.88
75745;BME280;64359;51.366;-0.222;2023-05-02T01:28:26;101955.31;;;21.62;53.80
75745;BME280;64359;51.366;-0.222;2023-05-02T01:29:30;101955.00;;;21.61;53.77
75745;BME280;64359;51.366;-0.222;2023-05-02T01:30:32;101951.05;;;21.61;53.75
75745;BME280;64359;51.366;-0.222;2023-05-02T01:31:38;101948.77;;;21.59;53.73
75745;BME280;64359;51.366;-0.222;2023-05-02T01:32:45;101951.40;;;21.58;53.87
75745;BME280;64359;51.366;-0.222;2023-05-02T01:33:48;101951.03;;;21.58;53.75
75745;BME280;64359;51.366;-0.222;2023-05-02T01:34:53;101951.58;;;21.58;53.81
75745;BME280;64359;51.366;-0.222;2023-05-02T01:35:57;101951.72;;;21.58;53.91
75745;BME280;64359;51.366;-0.222;2023-05-02T01:37:02;101949.45;;;21.58;53.89
75745;BME280;64359;51.366;-0.222;2023-05-02T01:38:07;101950.66;;;21.58;53.80
75745;BME280;64359;51.366;-0.222;2023-05-02T01:39:10;101949.61;;;21.58;53.81
75745;BME280;64359;51.366;-0.222;2023-05-02T01:40:17;101952.70;;;21.58;53.60
75745;BME280;64359;51.366;-0.222;2023-05-02T01:41:22;101947.11;;;21.57;53.79
75745;BME280;64359;51.366;-0.222;2023-05-02T01:42:26;101949.27;;;21.58;53.81
75745;BME280;64359;51.366;-0.222;2023-05-02T01:43:32;101950.12;;;21.58;53.87
75745;BME280;64359;51.366;-0.222;2023-05-02T01:44:37;101951.40;;;21.58;53.79
75745;BME280;64359;51.366;-0.222;2023-05-02T01:45:40;101950.36;;;21.58;53.77
75745;BME280;64359;51.366;-0.222;2023-05-02T01:46:45;101952.48;;;21.58;53.73
75745;BME280;64359;51.366;-0.222;2023-05-02T01:47:49;101951.24;;;21.58;53.67
75745;BME280;64359;51.366;-0.222;2023-05-02T01:48:53;101958.46;;;21.58;53.68
75745;BME280;64359;51.366;-0.222;2023-05-02T01:49:59;101957.52;;;21.58;53.72
75745;BME280;64359;51.366;-0.222;2023-05-02T01:51:04;101958.83;;;21.58;53.69
75745;BME280;64359;51.366;-0.222;2023-05-02T01:52:09;101960.80;;;21.58;53.66
75745;BME280;64359;51.366;-0.222;2023-05-02T01:53:12;101962.66;;;21.58;53.69
75745;BME280;64359;51.366;-0.222;2023-05-02T01:54:17;101965.55;;;21.58;53.66
75745;BME280;64359;51.366;-0.222;2023-05-02T01:55:21;101971.30;;;21.58;53.71
75745;BME280;64359;51.366;-0.222;2023-05-02T01:56:25;101975.17;;;21.57;53.58
75745;BME280;64359;51.366;-0.222;2023-05-02T01:57:29;101977.34;;;21.57;53.58
75745;BME280;64359;51.366;-0.222;2023-05-02T01:58:32;101981.48;;;21.57;53.68
75745;BME280;64359;51.366;-0.222;2023-05-02T01:59:39;101985.51;;;21.57;53.60
75745;BME280;64359;51.366;-0.222;2023-05-02T02:00:42;101983.70;;;21.57;53.59
75745;BME280;64359;51.366;-0.222;2023-05-02T02:01:46;101984.05;;;21.57;53.63
75745;BME280;64359;51.366;-0.222;2023-05-02T02:02:50;101981.05;;;21.56;53.61
75745;BME280;64359;51.366;-0.222;2023-05-02T02:03:56;101983.58;;;21.57;53.61
75745;BME280;64359;51.366;-0.222;2023-05-02T02:05:01;101981.74;;;21.56;53.59
75745;BME280;64359;51.366;-0.222;2023-05-02T02:06:05;101981.81;;;21.56;53.61
75745;BME280;64359;51.366;-0.222;2023-05-02T02:07:09;101980.04;;;21.55;53.62
75745;BME280;64359;51.366;-0.222;2023-05-02T02:08:12;101978.29;;;21.55;53.50
75745;BME280;64359;51.366;-0.222;2023-05-02T02:09:14;101976.89;;;21.55;53.44
75745;BME280;64359;51.366;-0.222;2023-05-02T02:10:17;101981.77;;;21.55;53.54
75745;BME280;64359;51.366;-0.222;2023-05-02T02:11:23;101982.31;;;21.55;53.54
75745;BME280;64359;51.366;-0.222;2023-05-02T02:12:30;101983.63;;;21.54;53.54
75745;BME280;64359;51.366;-0.222;2023-05-02T02:13:36;101986.21;;;21.54;53.59
75745;BME280;64359;51.366;-0.222;2023-05-02T02:14:42;101985.89;;;21.53;53.42
75745;BME280;64359;51.366;-0.222;2023-05-02T02:15:48;101983.41;;;21.53;53.49
75745;BME280;64359;51.366;-0.222;2023-05-02T02:16:55;101983.09;;;21.52;53.38
75745;BME280;64359;51.366;-0.222;2023-05-02T02:18:04;101984.76;;;21.52;53.51
75745;BME280;64359;51.366;-0.222;2023-05-02T02:19:12;101987.73;;;21.51;53.47
75745;BME280;64359;51.366;-0.222;2023-05-02T02:20:15;101987.21;;;21.51;53.57
75745;BME280;64359;51.366;-0.222;2023-05-02T02:21:20;101987.79;;;21.51;53.50
75745;BME280;64359;51.366;-0.222;2023-05-02T02:22:26;101986.20;;;21.50;53.57
75745;BME280;64359;51.366;-0.222;2023-05-02T02:23:29;101987.48;;;21.50;53.38
75745;BME280;64359;51.366;-0.222;2023-05-02T02:24:34;101992.40;;;21.50;53.56
75745;BME280;64359;51.366;-0.222;2023-05-02T02:25:36;101994.23;;;21.50;53.56
75745;BME280;64359;51.366;-0.222;2023-05-02T02:26:39;101993.27;;;21.47;53.55
75745;BME280;64359;51.366;-0.222;2023-05-02T02:27:42;101992.25;;;21.46;53.54
75745;BME280;64359;51.366;-0.222;2023-05-02T02:28:44;102000.05;;;21.45;53.54
75745;BME280;64359;51.366;-0.222;2023-05-02T02:29:47;101996.82;;;21.45;53.47
75745;BME280;64359;51.366;-0.222;2023-05-02T02:30:49;101998.15;;;21.45;53.41
75745;BME280;64359;51.366;-0.222;2023-05-02T02:31:52;102001.02;;;21.45;53.55
75745;BME280;64359;51.366;-0.222;2023-05-02T02:32:54;102003.90;;;21.45;53.48
75745;BME280;64359;51.366;-0.222;2023-05-02T02:33:56;102006.63;;;21.45;53.42
75745;BME280;64359;51.366;-0.222;2023-05-02T02:34:59;102009.16;;;21.45;53.48
75745;BME280;64359;51.366;-0.222;2023-05-02T02:36:05;102011.02;;;21.44;53.41
75745;BME280;64359;51.366;-0.222;2023-05-02T02:37:15;102009.05;;;21.41;53.48
75745;BME280;64359;51.366;-0.222;2023-05-02T02:38:25;102008.20;;;21.40;53.53
75745;BME280;64359;51.366;-0.222;2023-05-02T02:39:41;102011.52;;;21.40;53.49
75745;BME280;64359;51.366;-0.222;2023-05-02T02:40:48;102007.65;;;21.39;53.47
75745;BME280;64359;51.366;-0.222;2023-05-02T02:42:02;102010.45;;;21.38;53.50
75745;BME280;64359;51.366;-0.222;2023-05-02T02:43:11;102011.95;;;21.37;53.55
75745;BME280;64359;51.366;-0.222;2023-05-02T02:44:27;102014.86;;;21.37;53.46
75745;BME280;64359;51.366;-0.222;2023-05-02T02:45:37;102020.52;;;21.37;53.53
75745;BME280;64359;51.366;-0.222;2023-05-02T02:46:47;102025.80;;;21.36;53.40
75745;BME280;64359;51.366;-0.222;2023-05-02T02:47:55;102028.23;;;21.36;53.47
75745;BME280;64359;51.366;-0.222;2023-05-02T02:49:12;102028.30;;;21.35;53.55
75745;BME280;64359;51.366;-0.222;2023-05-02T02:50:22;102031.21;;;21.35;53.54
75745;BME280;64359;51.366;-0.222;2023-05-02T02:51:30;102027.68;;;21.34;53.55
75745;BME280;64359;51.366;-0.222;2023-05-02T02:52:43;102031.64;;;21.34;53.53
75745;BME280;64359;51.366;-0.222;2023-05-02T02:53:56;102029.36;;;21.33;53.43
75745;BME280;64359;51.366;-0.222;2023-05-02T02:55:06;102030.45;;;21.33;53.42
75745;BME280;64359;51.366;-0.222;2023-05-02T02:56:14;102025.30;;;21.32;53.52
75745;BME280;64359;51.366;-0.222;2023-05-02T02:57:23;102025.34;;;21.32;53.49
75745;BME280;64359;51.366;-0.222;2023-05-02T02:58:34;102024.66;;;21.32;53.56
75745;BME280;64359;51.366;-0.222;2023-05-02T02:59:45;102026.19;;;21.31;53.43
75745;BME280;64359;51.366;-0.222;2023-05-02T03:00:48;102023.78;;;21.32;53.62
75745;BME280;64359;51.366;-0.222;2023-05-02T03:01:58;102028.85;;;21.31;53.51
75745;BME280;64359;51.366;-0.222;2023-05-02T03:03:04;102030.02;;;21.31;53.38
75745;BME280;64359;51.366;-0.222;2023-05-02T03:04:09;102033.27;;;21.31;53.50
75745;BME280;64359;51.366;-0.222;2023-05-02T03:05:12;102034.31;;;21.31;53.45
75745;BME280;64359;51.366;-0.222;2023-05-02T03:06:15;102036.11;;;21.31;53.43
75745;BME280;64359;51.366;-0.222;2023-05-02T03:07:18;102035.06;;;21.31;53.47
75745;BME280;64359;51.366;-0.222;2023-05-02T03:08:20;102037.02;;;21.31;53.44
75745;BME280;64359;51.366;-0.222;2023-05-02T03:09:23;102035.91;;;21.31;53.39
75745;BME280;64359;51.366;-0.222;2023-05-02T03:10:25;102035.43;;;21.31;53.48
75745;BME280;64359;51.366;-0.222;2023-05-02T03:11:27;102032.06;;;21.28;53.46
75745;BME280;64359;51.366;-0.222;2023-05-02T03:12:30;102032.63;;;21.28;53.50
75745;BME280;64359;51.366;-0.222;2023-05-02T03:13:32;102033.15;;;21.28;53.57
75745;BME280;64359;51.366;-0.222;2023-05-02T03:14:35;102035.92;;;21.27;53.41
75745;BME280;64359;51.366;-0.222;2023-05-02T03:16:05;102034.23;;;21.28;53.53
75745;BME280;64359;51.366;-0.222;2023-05-02T03:17:13;102037.95;;;21.27;53.52
75745;BME280;64359;51.366;-0.222;2023-05-02T03:18:15;102039.44;;;21.27;53.53
75745;BME280;64359;51.366;-0.222;2023-05-02T03:19:17;102038.46;;;21.27;53.55
75745;BME280;64359;51.366;-0.222;2023-05-02T03:20:20;102042.94;;;21.28;53.65
75745;BME280;64359;51.366;-0.222;2023-05-02T03:21:22;102038.80;;;21.28;53.67
75745;BME280;64359;51.366;-0.222;2023-05-02T03:22:24;102042.88;;;21.29;53.57
75745;BME280;64359;51.366;-0.222;2023-05-02T03:23:27;102045.88;;;21.29;53.54
75745;BME280;64359;51.366;-0.222;2023-05-02T03:24:29;102047.13;;;21.29;53.58
75745;BME280;64359;51.366;-0.222;2023-05-02T03:25:32;102045.55;;;21.31;53.68
75745;BME280;64359;51.366;-0.222;2023-05-02T03:26:34;102049.46;;;21.31;53.63
75745;BME280;64359;51.366;-0.222;2023-05-02T03:27:36;102051.12;;;21.33;53.54
75745;BME280;64359;51.366;-0.222;2023-05-02T03:28:38;102050.33;;;21.34;53.56
75745;BME280;64359;51.366;-0.222;2023-05-02T03:29:41;102054.83;;;21.35;53.61
75745;BME280;64359;51.366;-0.222;2023-05-02T03:30:43;102051.14;;;21.36;53.61
75745;BME280;64359;51.366;-0.222;2023-05-02T03:31:46;102051.32;;;21.38;53.54
75745;BME280;64359;51.366;-0.222;2023-05-02T03:32:48;102052.55;;;21.40;53.73
75745;BME280;64359;51.366;-0.222;2023-05-02T03:33:51;102051.64;;;21.41;53.52
75745;BME280;64359;51.366;-0.222;2023-05-02T03:34:53;102053.99;;;21.43;53.40
75745;BME280;64359;51.366;-0.222;2023-05-02T03:35:59;102054.37;;;21.45;53.34
75745;BME280;64359;51.366;-0.222;2023-05-02T03:37:01;102059.08;;;21.46;53.17
75745;BME280;64359;51.366;-0.222;2023-05-02T03:38:03;102055.98;;;21.49;53.11
75745;BME280;64359;51.366;-0.222;2023-05-02T03:39:06;102061.23;;;21.50;53.24
75745;BME280;64359;51.366;-0.222;2023-05-02T03:40:09;102060.66;;;21.52;53.11
75745;BME280;64359;51.366;-0.222;2023-05-02T03:41:11;102060.84;;;21.54;53.23
75745;BME280;64359;51.366;-0.222;2023-05-02T03:42:14;102062.23;;;21.56;53.02
75745;BME280;64359;51.366;-0.222;2023-05-02T03:43:16;102061.73;;;21.58;53.01
75745;BME280;64359;51.366;-0.222;2023-05-02T03:44:18;102054.52;;;21.59;53.00
75745;BME280;64359;51.366;-0.222;2023-05-02T03:45:20;102060.43;;;21.61;53.10
75745;BME280;64359;51.366;-0.222;2023-05-02T03:46:23;102058.81;;;21.63;52.98
75745;BME280;64359;51.366;-0.222;2023-05-02T03:47:25;102060.47;;;21.64;53.02
75745;BME280;64359;51.366;-0.222;2023-05-02T03:48:27;102060.45;;;21.66;52.91
75745;BME280;64359;51.366;-0.222;2023-05-02T03:49:29;102056.25;;;21.68;52.97
75745;BME280;64359;51.366;-0.222;2023-05-02T03:50:32;102057.14;;;21.70;52.84
75745;BME280;64359;51.366;-0.222;2023-05-02T03:51:34;102057.69;;;21.71;52.99
75745;BME280;64359;51.366;-0.222;2023-05-02T03:52:36;102058.20;;;21.73;52.87
75745;BME280;64359;51.366;-0.222;2023-05-02T03:53:39;102055.29;;;21.75;52.80
75745;BME280;64359;51.366;-0.222;2023-05-02T03:54:41;102053.71;;;21.76;52.79
75745;BME280;64359;51.366;-0.222;2023-05-02T03:55:44;102056.25;;;21.78;52.71
75745;BME280;64359;51.366;-0.222;2023-05-02T03:56:47;102058.19;;;21.81;52.68
75745;BME280;64359;51.366;-0.222;2023-05-02T03:57:49;102058.63;;;21.82;52.73
75745;BME280;64359;51.366;-0.222;2023-05-02T03:58:51;102060.84;;;21.83;52.78
75745;BME280;64359;51.366;-0.222;2023-05-02T03:59:54;102062.81;;;21.85;52.72
75745;BME280;64359;51.366;-0.222;2023-05-02T04:00:57;102068.58;;;21.86;52.60
75745;BME280;64359;51.366;-0.222;2023-05-02T04:01:59;102072.08;;;21.88;52.71
75745;BME280;64359;51.366;-0.222;2023-05-02T04:03:01;102071.27;;;21.88;52.50
75745;BME280;64359;51.366;-0.222;2023-05-02T04:04:04;102075.77;;;21.90;52.59
75745;BME280;64359;51.366;-0.222;2023-05-02T04:05:07;102078.27;;;21.91;52.48
75745;BME280;64359;51.366;-0.222;2023-05-02T04:06:09;102079.41;;;21.91;52.53
75745;BME280;64359;51.366;-0.222;2023-05-02T04:07:13;102076.06;;;21.92;52.50
75745;BME280;64359;51.366;-0.222;2023-05-02T04:08:19;102082.07;;;21.94;52.44
75745;BME280;64359;51.366;-0.222;2023-05-02T04:09:22;102081.66;;;21.94;52.50
75745;BME280;64359;51.366;-0.222;2023-05-02T04:10:25;102083.19;;;21.95;52.36
75745;BME280;64359;51.366;-0.222;2023-05-02T04:11:28;102081.80;;;21.96;52.45
75745;BME280;64359;51.366;-0.222;2023-05-02T04:12:30;102084.62;;;21.97;52.46
75745;BME280;64359;51.366;-0.222;2023-05-02T04:13:33;102083.09;;;21.97;52.36
75745;BME280;64359;51.366;-0.222;2023-05-02T04:14:35;102082.45;;;21.98;52.42
75745;BME280;64359;51.366;-0.222;2023-05-02T04:15:37;102080.96;;;21.99;52.39
75745;BME280;64359;51.366;-0.222;2023-05-02T04:16:40;102078.88;;;22.00;52.31
75745;BME280;64359;51.366;-0.222;2023-05-02T04:17:42;102079.16;;;22.01;52.46
75745;BME280;64359;51.366;-0.222;2023-05-02T04:18:44;102082.93;;;22.01;52.27
75745;BME280;64359;51.366;-0.222;2023-05-02T04:19:47;102079.58;;;22.02;52.35
75745;BME280;64359;51.366;-0.222;2023-05-02T04:20:49;102077.92;;;22.02;52.39
75745;BME280;64359;51.366;-0.222;2023-05-02T04:21:51;102080.97;;;22.02;52.46
75745;BME280;64359;51.366;-0.222;2023-05-02T04:22:54;102077.68;;;22.03;52.41
75745;BME280;64359;51.366;-0.222;2023-05-02T04:23:56;102078.56;;;22.03;52.53
75745;BME280;64359;51.366;-0.222;2023-05-02T04:24:59;102076.69;;;22.03;52.32
75745;BME280;64359;51.366;-0.222;2023-05-02T04:26:01;102078.80;;;22.04;52.63
75745;BME280;64359;51.366;-0.222;2023-05-02T04:27:04;102078.09;;;22.04;52.75
75745;BME280;64359;51.366;-0.222;2023-05-02T04:28:06;102074.66;;;22.04;52.62
75745;BME280;64359;51.366;-0.222;2023-05-02T04:29:09;102076.05;;;22.04;52.59
75745;BME280;64359;51.366;-0.222;2023-05-02T04:30:12;102078.56;;;22.05;52.75
75745;BME280;64359;51.366;-0.222;2023-05-02T04:31:14;102080.37;;;22.05;52.61
75745;BME280;64359;51.366;-0.222;2023-05-02T04:32:17;102083.59;;;22.05;52.56
75745;BME280;64359;51.366;-0.222;2023-05-02T04:33:19;102086.64;;;22.05;52.62
75745;BME280;64359;51.366;-0.222;2023-05-02T04:34:21;102088.40;;;22.06;52.41
75745;BME280;64359;51.366;-0.222;2023-05-02T04:35:24;102086.27;;;22.06;52.36
75745;BME280;64359;51.366;-0.222;2023-05-02T04:36:26;102091.63;;;22.06;52.29
75745;BME280;64359;51.366;-0.222;2023-05-02T04:37:29;102094.14;;;22.07;52.19
75745;BME280;64359;51.366;-0.222;2023-05-02T04:38:31;102089.36;;;22.08;52.29
75745;BME280;64359;51.366;-0.222;2023-05-02T04:39:33;102089.36;;;22.08;52.24
75745;BME280;64359;51.366;-0.222;2023-05-02T04:40:36;102091.73;;;22.07;52.16
75745;BME280;64359;51.366;-0.222;2023-05-02T04:41:38;102091.45;;;22.08;52.31
75745;BME280;64359;51.366;-0.222;2023-05-02T04:42:40;102098.63;;;22.09;52.22
75745;BME280;64359;51.366;-0.222;2023-05-02T04:43:43;102098.25;;;22.09;52.20
75745;BME280;64359;51.366;-0.222;2023-05-02T04:44:47;102103.27;;;22.09;52.29
75745;BME280;64359;51.366;-0.222;2023-05-02T04:45:49;102104.09;;;22.10;52.24
75745;BME280;64359;51.366;-0.222;2023-05-02T04:46:52;102103.52;;;22.10;52.32
75745;BME280;64359;51.366;-0.222;2023-05-02T04:47:54;102108.50;;;22.11;52.27
75745;BME280;64359;51.366;-0.222;2023-05-02T04:48:56;102109.38;;;22.11;52.21
75745;BME280;64359;51.366;-0.222;2023-05-02T04:49:58;102110.60;;;22.12;52.22
75745;BME280;64359;51.366;-0.222;2023-05-02T04:51:01;102116.30;;;22.13;52.23
75745;BME280;64359;51.366;-0.222;2023-05-02T04:52:03;102115.02;;;22.13;52.08
75745;BME280;64359;51.366;-0.222;2023-05-02T04:53:06;102115.90;;;22.13;52.16
75745;BME280;64359;51.366;-0.222;2023-05-02T04:54:08;102118.41;;;22.13;52.23
75745;BME280;64359;51.366;-0.222;2023-05-02T04:55:11;102116.95;;;22.13;52.20
75745;BME280;64359;51.366;-0.222;2023-05-02T04:56:13;102118.69;;;22.14;52.26
75745;BME280;64359;51.366;-0.222;2023-05-02T04:57:15;102120.17;;;22.13;52.15
75745;BME280;64359;51.366;-0.222;2023-05-02T04:58:18;102121.77;;;22.14;52.23
75745;BME280;64359;51.366;-0.222;2023-05-02T04:59:20;102122.66;;;22.14;52.19
75745;BME280;64359;51.366;-0.222;2023-05-02T05:00:23;102128.25;;;22.14;52.41
75745;BME280;64359;51.366;-0.222;2023-05-02T05:01:25;102130.02;;;22.14;52.64
75745;BME280;64359;51.366;-0.222;2023-05-02T05:02:28;102135.41;;;22.15;52.62
75745;BME280;64359;51.366;-0.222;2023-05-02T05:03:31;102135.27;;;22.14;52.55
75745;BME280;64359;51.366;-0.222;2023-05-02T05:04:34;102139.96;;;22.15;53.02
75745;BME280;64359;51.366;-0.222;2023-05-02T05:05:36;102138.91;;;22.14;52.55
75745;BME280;64359;51.366;-0.222;2023-05-02T05:06:38;102136.19;;;22.14;52.58
75745;BME280;64359;51.366;-0.222;2023-05-02T05:07:40;102138.91;;;22.14;52.73
75745;BME280;64359;51.366;-0.222;2023-05-02T05:08:43;102140.95;;;22.14;52.65
75745;BME280;64359;51.366;-0.222;2023-05-02T05:09:46;102141.08;;;22.14;52.82
75745;BME280;64359;51.366;-0.222;2023-05-02T05:10:48;102138.14;;;22.11;52.81
75745;BME280;64359;51.366;-0.222;2023-05-02T05:11:51;102139.09;;;22.11;52.74
75745;BME280;64359;51.366;-0.222;2023-05-02T05:12:53;102135.67;;;22.11;52.63
75745;BME280;64359;51.366;-0.222;2023-05-02T05:13:56;102133.77;;;22.10;52.77
75745;BME280;64359;51.366;-0.222;2023-05-02T05:14:58;102137.17;;;22.10;52.81
75745;BME280;64359;51.366;-0.222;2023-05-02T05:16:01;102141.16;;;22.10;52.84
75745;BME280;64359;51.366;-0.222;2023-05-02T05:17:03;102141.16;;;22.10;52.77
75745;BME280;64359;51.366;-0.222;2023-05-02T05:18:05;102138.75;;;22.09;52.82
75745;BME280;64359;51.366;-0.222;2023-05-02T05:19:08;102145.95;;;22.10;52.83
75745;BME280;64359;51.366;-0.222;2023-05-02T05:20:10;102145.61;;;22.09;52.77
75745;BME280;64359;51.366;-0.222;2023-05-02T05:21:13;102148.45;;;22.10;52.88
75745;BME280;64359;51.366;-0.222;2023-05-02T05:22:15;102147.61;;;22.09;52.75
75745;BME280;64359;51.366;-0.222;2023-05-02T05:23:17;102150.46;;;22.10;52.91
75745;BME280;64359;51.366;-0.222;2023-05-02T05:24:20;102154.66;;;22.09;52.76
75745;BME280;64359;51.366;-0.222;2023-05-02T05:25:22;102152.49;;;22.09;52.79
75745;BME280;64359;51.366;-0.222;2023-05-02T05:26:24;102153.38;;;22.09;52.85
75745;BME280;64359;51.366;-0.222;2023-05-02T05:27:27;102153.75;;;22.09;52.91
75745;BME280;64359;51.366;-0.222;2023-05-02T05:28:29;102152.49;;;22.09;52.81
75745;BME280;64359;51.366;-0.222;2023-05-02T05:29:31;102152.64;;;22.10;52.84
75745;BME280;64359;51.366;-0.222;2023-05-02T05:30:34;102153.75;;;22.09;53.13
75745;BME280;64359;51.366;-0.222;2023-05-02T05:31:36;102155.95;;;22.09;53.07